Terminal Aerodrome Forecast
Issued by NWS

Home | Current Version | Previous Version | Graphics & Text | Print | Product List | Glossary On
Versions: 1 2 3 4 5 6 7 8 9 10 11 12 13 14 15
000
FTUS43 KABR 271128
TAFMBG
TAF
KMBG 271128Z 2712/2812 15006KT P6SM SKC
     FM271500 24010KT P6SM SKC
     FM272200 34012G22KT P6SM SKC
     FM280600 35006KT P6SM SKC=

USA.gov is the U.S. government's official web portal to all federal, state and local government web resources and services.